الصفحة الرئيسية
METAR-TAF:

METAR-TAF

مطار :

Watertown, داكوتا الجنوبية, الولايات المتحدة

دائرة عرض: 44-54-17N, خط طول: 097-08-58W, ارتفاع: 532 متر

مراقبة الطقس الحالي

تاريخ ووقت الإصدار 34 دقيقة قبل الساعة 05:53UTC
رياح هادئة
درجة الحرارة -9°درجة مئوية
الرطوبة 85%
ضغط 1015 hPa
الرؤية: 16.1 كم
سماء صافية

METAR: KATY 110553Z AUTO 00000KT 10SM CLR M09/M11 A2996 RMK AO2 SLP175 T10891111 11039 21100 400061172 55003

زمن: 00:27 (06:27 UTC)

توقعات

تاريخ ووقت الإصدار 1ساعة و 4 دقيقة قبل الساعة 05:23UTC
التوقعات صالحة من11 الساعة 06 UTC إلى 12 الساعة 06 UTC
ريح 3 عقدةمن اتجاهات متغيرة
الرؤية: 10 كم
ملبد بالغيوم على ارتفاع 25000 قدم
من 11 الساعة 2100 UTC
ريح 5 عقدةمن اتجاهات متغيرة
الرؤية: 10 كم
ملبد بالغيوم على ارتفاع 10000 قدم
من 12 الساعة 0300 UTC
ريح 5 عقدةمن اتجاهات متغيرة
الرؤية: 10 كم
ملبد بالغيوم على ارتفاع 4000 قدم
ثلوج خفيفة

TAF: KATY 110523Z 1106/1206 VRB03KT P6SM OVC250 FM112100 VRB05KT P6SM OVC100 FM120300 VRB05KT P6SM -SN OVC040

أرصاد الطقس والتوقعات من أكثر من 4000 مطار (تقارير الطقس للمطار METAR والتنبؤ بالطقس بالمطارTAF).

المحطات المتاحة هي النقط الصفراء والحمراء على الخريطة.

حرك المؤشر فوق النقطة لمعرفة اسم المحطة.

ثم انقر لمعرفة أرصاد وتوقعات الطقس.

لتغيير الخارطة: اضغط على الأزرار الخضراء مع رمز الصليب الأسود للتكبير. على الزر الأخضر مع شرطة للتصغير، أو على الأسهم الخضراء للخرائط المجاورة.


METAR-TAF: